Time;durP1;ratioP1;P1;durP2;ratioP2;P2;SDS_P1;SDS_P2;PMS_P1;PMS_P2;Temp;Humidity;BMP_temperature;BMP_pressure;BME280_temperature;BME280_humidity;BME280_pressure;Samples;Min_cycle;Max_cycle;Signal;HPM_P1;HPM_P2
2022/09/30 11:42:50;;;;;;;7.40;3.40;;;13.40;99.90;;;;;;10697473;27;20713;-79
2022/09/30 11:48:14;;;;;;;6.43;3.10;;;13.80;99.90;;;;;;10654365;27;20059;-79
2022/09/30 11:53:27;;;;;;;4.85;2.03;;;14.20;99.90;;;;;;10657405;27;20051;-81
2022/09/30 11:58:36;;;;;;;4.03;1.70;;;14.50;99.60;;;;;;10654353;27;20047;-79
2022/09/30 12:03:43;;;;;;;5.28;1.95;;;14.70;98.00;;;;;;10663850;27;20412;-78
2022/09/30 12:08:51;;;;;;;3.65;1.50;;;15.00;96.80;;;;;;10657195;27;20507;-80
2022/09/30 12:14:00;;;;;;;3.33;1.50;;;15.40;95.70;;;;;;10654947;27;20054;-82
2022/09/30 12:19:14;;;;;;;7.30;2.92;;;15.60;94.80;;;;;;10654263;27;20180;-78
2022/09/30 12:24:24;;;;;;;3.97;1.30;;;15.90;93.00;;;;;;10671560;27;20571;-79
2022/09/30 12:35:08;;;;;;;3.90;1.25;;;16.40;90.20;;;;;;10673260;27;20054;-80
2022/09/30 12:40:28;;;;;;;4.75;1.27;;;16.80;88.70;;;;;;10696467;27;20050;-77
2022/09/30 12:46:09;;;;;;;2.83;1.30;;;16.90;88.30;;;;;;10685203;27;20487;-77
2022/09/30 12:51:24;;;;;;;6.18;1.20;;;17.30;87.70;;;;;;10681348;27;20414;-81
2022/09/30 12:56:29;;;;;;;3.15;1.23;;;17.60;83.60;;;;;;10660939;27;20074;-80
2022/09/30 13:01:37;;;;;;;3.35;1.20;;;17.60;80.60;;;;;;10608538;27;20074;-80
2022/09/30 13:07:12;;;;;;;4.35;1.30;;;17.80;81.60;;;;;;10668993;27;20043;-77
2022/09/30 13:12:25;;;;;;;3.83;1.52;;;17.80;83.90;;;;;;10531442;28;20051;-78
2022/09/30 13:17:28;;;;;;;4.45;1.15;;;17.90;82.00;;;;;;10531875;28;20072;-80
2022/09/30 13:22:58;;;;;;;3.25;1.20;;;18.60;84.90;;;;;;10498607;28;20752;-80
2022/09/30 13:28:30;;;;;;;4.45;1.38;;;19.30;75.90;;;;;;10522996;28;20467;-79
2022/09/30 13:33:46;;;;;;;3.67;1.20;;;19.40;76.30;;;;;;10536764;28;20398;-78
2022/09/30 13:39:17;;;;;;;3.75;1.40;;;19.70;74.90;;;;;;10537189;28;20228;-79
2022/09/30 13:44:26;;;;;;;4.53;1.30;;;20.30;73.80;;;;;;10496731;28;20052;-80
2022/09/30 13:49:45;;;;;;;4.40;1.60;;;20.20;72.60;;;;;;10534018;28;20459;-79
2022/09/30 13:54:48;;;;;;;2.50;1.13;;;20.00;75.40;;;;;;10537123;28;20048;-77
2022/09/30 14:00:06;;;;;;;4.10;1.40;;;19.90;77.50;;;;;;10539346;28;20083;-77
2022/09/30 14:05:34;;;;;;;2.70;1.33;;;20.00;78.50;;;;;;10540953;28;20095;-79
2022/09/30 14:10:55;;;;;;;4.78;1.20;;;20.20;78.10;;;;;;10522790;28;20044;-77
2022/09/30 14:16:36;;;;;;;9.93;5.10;;;20.00;75.40;;;;;;10520838;28;20071;-79
2022/09/30 14:21:44;;;;;;;8.00;4.13;;;20.40;74.90;;;;;;10536843;28;20080;-78
2022/09/30 14:27:35;;;;;;;4.38;1.60;;;20.00;73.50;;;;;;10532916;28;20142;-79
2022/09/30 14:32:45;;;;;;;3.00;1.20;;;20.00;72.50;;;;;;10395690;28;20138;-79
2022/09/30 14:37:53;;;;;;;3.85;1.20;;;20.30;73.20;;;;;;10500941;28;20527;-81
2022/09/30 14:43:01;;;;;;;;;;;20.30;73.20;;;;;;10511144;28;20056;-79
2022/09/30 14:48:09;;;;;;;3.85;1.20;;;21.90;67.30;;;;;;10492870;28;19955;-78
2022/09/30 14:53:27;;;;;;;3.35;1.25;;;22.80;65.60;;;;;;10515540;28;20472;-79
2022/09/30 14:58:31;;;;;;;3.00;1.10;;;24.20;61.30;;;;;;10521328;28;20131;-79
2022/09/30 15:03:36;;;;;;;3.38;1.50;;;25.80;56.50;;;;;;10515688;28;20528;-81
2022/09/30 15:08:40;;;;;;;3.30;1.13;;;26.80;54.60;;;;;;10534063;28;20546;-78
2022/09/30 15:13:42;;;;;;;3.83;1.20;;;28.20;52.90;;;;;;10515249;28;20125;-77
2022/09/30 15:18:46;;;;;;;2.60;1.00;;;29.20;50.50;;;;;;10510530;28;20135;-79
2022/09/30 15:23:52;;;;;;;5.65;1.00;;;29.30;49.10;;;;;;10510475;28;20105;-79
2022/09/30 15:28:54;;;;;;;6.53;1.50;;;29.20;48.20;;;;;;10524874;28;20083;-78
2022/09/30 15:34:06;;;;;;;2.63;1.00;;;29.60;47.60;;;;;;10532859;28;20093;-77
2022/09/30 15:39:23;;;;;;;3.92;1.17;;;29.90;45.80;;;;;;10530586;28;20080;-78
2022/09/30 15:44:38;;;;;;;2.08;0.90;;;29.50;46.20;;;;;;10528214;28;20044;-75
2022/09/30 15:49:49;;;;;;;2.70;1.00;;;29.50;45.40;;;;;;10495218;28;20088;-74
2022/09/30 15:54:52;;;;;;;3.70;1.00;;;29.40;45.40;;;;;;10500480;28;20044;-78
2022/09/30 16:00:00;;;;;;;1.92;0.82;;;29.00;45.80;;;;;;10529319;28;20087;-78
2022/09/30 16:05:04;;;;;;;3.65;1.10;;;28.90;47.00;;;;;;10536126;28;20048;-77
2022/09/30 16:10:19;;;;;;;3.03;0.90;;;29.10;47.00;;;;;;10541886;28;20051;-74
2022/09/30 16:15:22;;;;;;;4.00;2.05;;;29.00;47.00;;;;;;10529130;28;20375;-75
2022/09/30 16:20:25;;;;;;;2.97;1.17;;;28.50;47.90;;;;;;10522457;28;20048;-74
2022/09/30 16:25:32;;;;;;;3.22;1.17;;;27.80;49.40;;;;;;10504225;28;20056;-79
2022/09/30 16:30:34;;;;;;;4.97;1.10;;;26.80;51.10;;;;;;10503720;28;20048;-79
2022/09/30 16:35:36;;;;;;;5.75;1.83;;;26.20;53.20;;;;;;10520715;28;20143;-76
2022/09/30 16:40:40;;;;;;;4.50;2.30;;;25.10;54.40;;;;;;10500112;28;20091;-77
2022/09/30 16:45:42;;;;;;;3.50;1.27;;;24.00;58.00;;;;;;10513871;28;20124;-81
2022/09/30 16:50:50;;;;;;;5.53;1.20;;;23.10;59.70;;;;;;10526356;28;20414;-75
2022/09/30 16:55:53;;;;;;;3.47;1.17;;;22.50;61.00;;;;;;10526203;28;20061;-75
2022/09/30 17:00:56;;;;;;;11.85;2.00;;;21.90;62.30;;;;;;10521071;28;20044;-76
2022/09/30 17:06:00;;;;;;;7.45;1.80;;;21.10;65.50;;;;;;10539173;28;20477;-74
2022/09/30 17:11:04;;;;;;;6.93;1.30;;;20.40;66.90;;;;;;10518863;28;20051;-81
2022/09/30 17:16:07;;;;;;;4.68;1.45;;;19.90;68.30;;;;;;10530867;28;20076;-78
2022/09/30 17:21:09;;;;;;;4.50;1.60;;;19.50;70.00;;;;;;10506507;28;20048;-77
2022/09/30 17:26:12;;;;;;;4.93;1.30;;;18.90;72.10;;;;;;10517979;28;20127;-79
2022/09/30 17:31:14;;;;;;;4.65;2.00;;;18.50;74.00;;;;;;10499501;28;20082;-80
2022/09/30 17:36:17;;;;;;;5.07;1.85;;;18.20;75.40;;;;;;10540322;28;20179;-79
2022/09/30 17:46:43;;;;;;;4.25;1.50;;;17.50;79.30;;;;;;10515236;28;20071;-80
2022/09/30 17:51:44;;;;;;;4.20;1.50;;;17.30;81.70;;;;;;10510809;28;20052;-81
2022/09/30 17:56:48;;;;;;;4.30;1.75;;;17.00;81.70;;;;;;10523378;28;20043;-79
2022/09/30 18:01:50;;;;;;;5.07;2.38;;;16.40;81.80;;;;;;10533088;28;20072;-78
2022/09/30 18:06:53;;;;;;;5.15;3.25;;;16.40;83.90;;;;;;10514834;28;20413;-81
2022/09/30 18:11:59;;;;;;;6.40;3.58;;;16.30;85.20;;;;;;10526839;28;20047;-79
2022/09/30 18:17:01;;;;;;;6.05;3.72;;;16.00;88.10;;;;;;10510755;28;20505;-77
2022/09/30 18:22:03;;;;;;;9.10;4.65;;;15.90;90.30;;;;;;10524929;28;20574;-76
2022/09/30 18:27:06;;;;;;;8.45;5.60;;;15.70;91.40;;;;;;10508312;28;20074;-79
2022/09/30 18:32:08;;;;;;;7.90;5.50;;;15.60;92.30;;;;;;10525477;28;20052;-77
2022/09/30 18:37:10;;;;;;;11.82;6.18;;;15.40;93.10;;;;;;10538168;28;20542;-78
2022/09/30 18:42:14;;;;;;;8.50;5.68;;;15.20;93.90;;;;;;10535519;28;20060;-77
2022/09/30 18:47:16;;;;;;;8.95;5.50;;;15.00;94.60;;;;;;10532296;28;20071;-77
2022/09/30 18:52:18;;;;;;;9.02;5.68;;;14.90;95.10;;;;;;10519828;28;20082;-78
2022/09/30 18:57:21;;;;;;;7.85;5.00;;;14.90;95.30;;;;;;10535677;28;20052;-78
2022/09/30 19:02:23;;;;;;;8.45;5.22;;;14.90;95.40;;;;;;10544442;28;20048;-74
2022/09/30 19:07:27;;;;;;;8.35;5.03;;;14.70;96.20;;;;;;10526849;28;20070;-78
2022/09/30 19:12:34;;;;;;;7.22;4.50;;;14.50;96.70;;;;;;10500990;28;20488;-75
2022/09/30 19:17:37;;;;;;;9.40;5.43;;;14.30;97.40;;;;;;10519636;28;20051;-74
2022/09/30 19:22:39;;;;;;;8.52;5.72;;;14.30;97.80;;;;;;10538395;28;20124;-74
2022/09/30 19:27:42;;;;;;;10.70;6.50;;;14.20;98.30;;;;;;10516154;28;20494;-74
2022/09/30 19:32:44;;;;;;;9.15;6.35;;;14.10;98.10;;;;;;10493210;28;20075;-76
2022/09/30 19:37:47;;;;;;;10.00;6.00;;;14.00;98.80;;;;;;10498331;28;20494;-74
2022/09/30 19:42:52;;;;;;;7.90;5.68;;;13.90;99.40;;;;;;10503014;28;20104;-77
2022/09/30 19:47:57;;;;;;;8.68;6.00;;;13.80;99.90;;;;;;10522455;28;20040;-75
2022/09/30 19:52:59;;;;;;;8.00;5.00;;;13.80;99.90;;;;;;10510747;28;20122;-76
2022/09/30 19:58:03;;;;;;;9.00;4.90;;;13.80;99.90;;;;;;10509817;28;20048;-77
2022/09/30 20:03:05;;;;;;;10.10;4.13;;;13.70;99.90;;;;;;10521058;28;20129;-80
2022/09/30 20:08:07;;;;;;;6.70;3.75;;;13.70;99.90;;;;;;10520678;28;20063;-79
2022/09/30 20:13:11;;;;;;;6.38;4.00;;;13.70;99.90;;;;;;10546368;28;20090;-74
2022/09/30 20:18:12;;;;;;;9.57;4.95;;;13.60;99.90;;;;;;10513073;28;20048;-76
2022/09/30 20:23:15;;;;;;;10.13;5.30;;;13.40;99.90;;;;;;10504001;28;20075;-76
2022/09/30 20:28:19;;;;;;;11.68;6.20;;;12.90;99.90;;;;;;10530213;28;20081;-76
2022/09/30 20:33:23;;;;;;;8.88;4.60;;;12.70;99.90;;;;;;10551563;28;20078;-76
2022/09/30 20:38:25;;;;;;;8.65;5.32;;;12.60;99.90;;;;;;10544932;28;20066;-79
2022/09/30 20:43:30;;;;;;;7.13;4.93;;;12.60;99.90;;;;;;10544647;28;20052;-78
2022/09/30 20:48:34;;;;;;;7.50;4.47;;;12.60;99.90;;;;;;10533202;28;20122;-76
2022/09/30 20:53:38;;;;;;;7.55;4.20;;;12.70;99.90;;;;;;10506273;28;20446;-77
2022/09/30 20:58:42;;;;;;;8.25;4.22;;;12.50;99.90;;;;;;10506036;28;20063;-78
2022/09/30 21:03:49;;;;;;;7.03;4.38;;;12.50;99.90;;;;;;10520382;28;20044;-80
2022/09/30 21:08:51;;;;;;;8.52;4.47;;;12.40;99.90;;;;;;10521762;28;20056;-78
2022/09/30 21:13:54;;;;;;;6.47;3.80;;;12.20;99.90;;;;;;10572374;28;20063;-77
2022/09/30 21:18:56;;;;;;;6.70;3.40;;;12.00;99.90;;;;;;10559258;28;20040;-80
2022/09/30 21:23:58;;;;;;;6.63;3.40;;;12.00;99.90;;;;;;10564089;28;20432;-79
2022/09/30 21:29:02;;;;;;;5.95;3.58;;;12.00;99.90;;;;;;10516488;28;20048;-79
2022/09/30 21:34:04;;;;;;;6.22;3.45;;;12.10;99.90;;;;;;10520038;28;20542;-77
2022/09/30 21:39:06;;;;;;;5.82;3.97;;;11.90;99.90;;;;;;10506212;28;20076;-80
2022/09/30 21:44:10;;;;;;;8.02;4.75;;;11.90;99.90;;;;;;10501517;28;20524;-77
2022/09/30 21:49:17;;;;;;;8.73;5.60;;;11.90;99.90;;;;;;10505066;28;20049;-77
2022/09/30 21:54:20;;;;;;;7.97;4.60;;;12.00;99.90;;;;;;10520744;28;20044;-77
2022/09/30 21:59:24;;;;;;;7.75;4.90;;;11.90;99.90;;;;;;10584975;28;20048;-80
